Aviation Digital Data Service (ADDS)

Output produced by METARs form (0211 UTC 31 August 2016)
found at http://aviationweather.gov/adds/metars/
 
KCRG 302325Z 3100/3124 07010KT P6SM VCSH SCT025 BKN040 OVC060 
     TEMPO 3100/3104 3SM SHRA BR BKN025 
     FM310400 06005KT P6SM VCSH BKN015 
     FM311200 23006KT P6SM VCSH BKN015 
     TEMPO 3113/3117 SCT015 BKN025 
     FM311700 24010KT P6SM VCSH SCT015 BKN025